sensor_id;sensor_type;location;lat;lon;timestamp;temperature;humidity
34145;HTU21D;69555;53.014;8.886;2023-07-31T00:01:14;16.07;90.22
34145;HTU21D;69555;53.014;8.886;2023-07-31T00:03:40;16.05;90.49
34145;HTU21D;69555;53.014;8.886;2023-07-31T00:06:07;16.00;90.93
34145;HTU21D;69555;53.014;8.886;2023-07-31T00:08:34;16.06;90.70
34145;HTU21D;69555;53.014;8.886;2023-07-31T00:10:59;16.08;90.64
34145;HTU21D;69555;53.014;8.886;2023-07-31T00:13:26;16.11;90.74
34145;HTU21D;69555;53.014;8.886;2023-07-31T00:15:53;16.03;91.23
34145;HTU21D;69555;53.014;8.886;2023-07-31T00:18:18;16.11;91.11
34145;HTU21D;69555;53.014;8.886;2023-07-31T00:20:45;16.10;91.06
34145;HTU21D;69555;53.014;8.886;2023-07-31T00:23:11;16.07;91.21
34145;HTU21D;69555;53.014;8.886;2023-07-31T00:25:36;16.04;91.11
34145;HTU21D;69555;53.014;8.886;2023-07-31T00:28:03;16.01;91.52
34145;HTU21D;69555;53.014;8.886;2023-07-31T00:30:29;16.00;91.05
34145;HTU21D;69555;53.014;8.886;2023-07-31T00:32:56;16.03;91.23
34145;HTU21D;69555;53.014;8.886;2023-07-31T00:35:22;16.05;91.26
34145;HTU21D;69555;53.014;8.886;2023-07-31T00:37:48;16.05;91.31
34145;HTU21D;69555;53.014;8.886;2023-07-31T00:40:16;15.99;91.78
34145;HTU21D;69555;53.014;8.886;2023-07-31T00:42:43;16.02;91.39
34145;HTU21D;69555;53.014;8.886;2023-07-31T00:45:09;16.01;91.46
34145;HTU21D;69555;53.014;8.886;2023-07-31T00:47:35;16.04;91.08
34145;HTU21D;69555;53.014;8.886;2023-07-31T00:50:01;16.03;91.18
34145;HTU21D;69555;53.014;8.886;2023-07-31T00:52:28;15.98;91.33
34145;HTU21D;69555;53.014;8.886;2023-07-31T00:54:53;15.98;91.46
34145;HTU21D;69555;53.014;8.886;2023-07-31T00:57:20;15.99;91.20
34145;HTU21D;69555;53.014;8.886;2023-07-31T00:59:47;16.02;91.15
34145;HTU21D;69555;53.014;8.886;2023-07-31T01:02:14;15.88;91.34
34145;HTU21D;69555;53.014;8.886;2023-07-31T01:04:42;15.95;91.24
34145;HTU21D;69555;53.014;8.886;2023-07-31T01:07:44;15.89;91.60
34145;HTU21D;69555;53.014;8.886;2023-07-31T01:10:16;15.91;91.61
34145;HTU21D;69555;53.014;8.886;2023-07-31T01:12:45;15.91;91.58
34145;HTU21D;69555;53.014;8.886;2023-07-31T01:15:13;15.87;91.85
34145;HTU21D;69555;53.014;8.886;2023-07-31T01:17:42;15.85;92.24
34145;HTU21D;69555;53.014;8.886;2023-07-31T01:20:20;15.90;91.93
34145;HTU21D;69555;53.014;8.886;2023-07-31T01:23:20;15.93;91.86
34145;HTU21D;69555;53.014;8.886;2023-07-31T01:29:11;15.88;91.81
34145;HTU21D;69555;53.014;8.886;2023-07-31T01:31:42;15.89;91.68
34145;HTU21D;69555;53.014;8.886;2023-07-31T01:34:10;15.85;91.87
34145;HTU21D;69555;53.014;8.886;2023-07-31T01:36:37;15.88;91.78
34145;HTU21D;69555;53.014;8.886;2023-07-31T01:39:04;15.87;91.96
34145;HTU21D;69555;53.014;8.886;2023-07-31T01:41:30;15.90;91.75
34145;HTU21D;69555;53.014;8.886;2023-07-31T01:43:57;15.91;91.95
34145;HTU21D;69555;53.014;8.886;2023-07-31T01:46:23;15.85;92.35
34145;HTU21D;69555;53.014;8.886;2023-07-31T01:48:50;15.77;93.15
34145;HTU21D;69555;53.014;8.886;2023-07-31T01:51:17;15.80;93.33
34145;HTU21D;69555;53.014;8.886;2023-07-31T01:53:43;15.75;93.58
34145;HTU21D;69555;53.014;8.886;2023-07-31T01:56:10;15.69;94.01
34145;HTU21D;69555;53.014;8.886;2023-07-31T01:58:36;15.67;94.70
34145;HTU21D;69555;53.014;8.886;2023-07-31T02:01:02;15.60;94.94
34145;HTU21D;69555;53.014;8.886;2023-07-31T02:03:29;15.53;95.53
34145;HTU21D;69555;53.014;8.886;2023-07-31T02:05:54;15.46;96.54
34145;HTU21D;69555;53.014;8.886;2023-07-31T02:08:20;15.61;95.58
34145;HTU21D;69555;53.014;8.886;2023-07-31T02:10:46;15.42;96.64
34145;HTU21D;69555;53.014;8.886;2023-07-31T02:13:11;15.45;97.00
34145;HTU21D;69555;53.014;8.886;2023-07-31T02:15:37;15.44;96.84
34145;HTU21D;69555;53.014;8.886;2023-07-31T02:18:04;15.44;97.17
34145;HTU21D;69555;53.014;8.886;2023-07-31T02:20:34;15.42;97.49
34145;HTU21D;69555;53.014;8.886;2023-07-31T02:23:01;15.36;97.86
34145;HTU21D;69555;53.014;8.886;2023-07-31T02:25:29;15.33;97.79
34145;HTU21D;69555;53.014;8.886;2023-07-31T02:27:56;15.36;97.93
34145;HTU21D;69555;53.014;8.886;2023-07-31T02:30:22;15.37;97.91
34145;HTU21D;69555;53.014;8.886;2023-07-31T02:32:49;15.42;97.79
34145;HTU21D;69555;53.014;8.886;2023-07-31T02:35:16;15.33;98.37
34145;HTU21D;69555;53.014;8.886;2023-07-31T02:37:42;15.32;97.52
34145;HTU21D;69555;53.014;8.886;2023-07-31T02:40:08;15.30;97.97
34145;HTU21D;69555;53.014;8.886;2023-07-31T02:42:37;15.34;98.17
34145;HTU21D;69555;53.014;8.886;2023-07-31T02:45:02;15.17;98.77
34145;HTU21D;69555;53.014;8.886;2023-07-31T02:47:29;15.21;98.38
34145;HTU21D;69555;53.014;8.886;2023-07-31T02:49:56;15.19;98.77
34145;HTU21D;69555;53.014;8.886;2023-07-31T02:52:22;15.19;98.77
34145;HTU21D;69555;53.014;8.886;2023-07-31T02:54:49;15.23;98.81
34145;HTU21D;69555;53.014;8.886;2023-07-31T02:57:15;15.15;99.07
34145;HTU21D;69555;53.014;8.886;2023-07-31T02:59:42;15.08;99.35
34145;HTU21D;69555;53.014;8.886;2023-07-31T03:02:09;15.13;99.08
34145;HTU21D;69555;53.014;8.886;2023-07-31T03:04:36;15.02;99.53
34145;HTU21D;69555;53.014;8.886;2023-07-31T03:07:02;15.12;99.13
34145;HTU21D;69555;53.014;8.886;2023-07-31T03:09:29;15.11;99.16
34145;HTU21D;69555;53.014;8.886;2023-07-31T03:11:56;15.18;98.84
34145;HTU21D;69555;53.014;8.886;2023-07-31T03:14:21;15.10;99.27
34145;HTU21D;69555;53.014;8.886;2023-07-31T03:16:48;15.09;99.36
34145;HTU21D;69555;53.014;8.886;2023-07-31T03:19:15;15.11;98.91
34145;HTU21D;69555;53.014;8.886;2023-07-31T03:21:42;15.09;98.83
34145;HTU21D;69555;53.014;8.886;2023-07-31T03:24:08;15.13;98.77
34145;HTU21D;69555;53.014;8.886;2023-07-31T03:26:34;15.14;98.71
34145;HTU21D;69555;53.014;8.886;2023-07-31T03:29:01;15.06;98.80
34145;HTU21D;69555;53.014;8.886;2023-07-31T03:31:27;15.07;99.12
34145;HTU21D;69555;53.014;8.886;2023-07-31T03:33:54;15.13;98.88
34145;HTU21D;69555;53.014;8.886;2023-07-31T03:36:21;15.04;99.38
34145;HTU21D;69555;53.014;8.886;2023-07-31T03:38:47;15.06;99.12
34145;HTU21D;69555;53.014;8.886;2023-07-31T03:41:14;15.06;99.41
34145;HTU21D;69555;53.014;8.886;2023-07-31T03:43:40;15.08;99.03
34145;HTU21D;69555;53.014;8.886;2023-07-31T03:46:07;15.07;99.38
34145;HTU21D;69555;53.014;8.886;2023-07-31T03:48:34;15.01;99.90
34145;HTU21D;69555;53.014;8.886;2023-07-31T03:51:00;15.06;99.62
34145;HTU21D;69555;53.014;8.886;2023-07-31T03:53:26;15.09;99.90
34145;HTU21D;69555;53.014;8.886;2023-07-31T03:55:53;15.01;100.18
34145;HTU21D;69555;53.014;8.886;2023-07-31T03:58:20;14.99;100.26
34145;HTU21D;69555;53.014;8.886;2023-07-31T04:00:47;14.99;100.42
34145;HTU21D;69555;53.014;8.886;2023-07-31T04:03:13;15.15;99.97
34145;HTU21D;69555;53.014;8.886;2023-07-31T04:05:40;15.13;99.83
34145;HTU21D;69555;53.014;8.886;2023-07-31T04:08:07;15.18;99.86
34145;HTU21D;69555;53.014;8.886;2023-07-31T04:10:33;15.13;100.06
34145;HTU21D;69555;53.014;8.886;2023-07-31T04:13:00;15.13;100.12
34145;HTU21D;69555;53.014;8.886;2023-07-31T04:15:27;15.16;100.26
34145;HTU21D;69555;53.014;8.886;2023-07-31T04:17:52;15.19;99.99
34145;HTU21D;69555;53.014;8.886;2023-07-31T04:20:19;15.16;100.24
34145;HTU21D;69555;53.014;8.886;2023-07-31T04:22:46;15.14;100.45
34145;HTU21D;69555;53.014;8.886;2023-07-31T04:25:12;15.14;100.70
34145;HTU21D;69555;53.014;8.886;2023-07-31T04:27:39;15.16;100.31
34145;HTU21D;69555;53.014;8.886;2023-07-31T04:30:05;15.22;100.48
34145;HTU21D;69555;53.014;8.886;2023-07-31T04:32:31;15.25;99.88
34145;HTU21D;69555;53.014;8.886;2023-07-31T04:34:58;15.27;99.93
34145;HTU21D;69555;53.014;8.886;2023-07-31T04:37:25;15.18;100.44
34145;HTU21D;69555;53.014;8.886;2023-07-31T04:39:50;15.27;100.04
34145;HTU21D;69555;53.014;8.886;2023-07-31T04:42:17;15.17;99.92
34145;HTU21D;69555;53.014;8.886;2023-07-31T04:44:43;15.15;100.22
34145;HTU21D;69555;53.014;8.886;2023-07-31T04:47:10;15.16;100.54
34145;HTU21D;69555;53.014;8.886;2023-07-31T04:49:37;15.15;100.64
34145;HTU21D;69555;53.014;8.886;2023-07-31T04:52:03;15.38;99.64
34145;HTU21D;69555;53.014;8.886;2023-07-31T04:54:30;15.28;99.91
34145;HTU21D;69555;53.014;8.886;2023-07-31T04:56:56;15.21;100.25
34145;HTU21D;69555;53.014;8.886;2023-07-31T04:59:23;15.23;100.24
34145;HTU21D;69555;53.014;8.886;2023-07-31T05:01:50;15.15;100.58
34145;HTU21D;69555;53.014;8.886;2023-07-31T05:04:17;15.10;101.36
34145;HTU21D;69555;53.014;8.886;2023-07-31T05:06:44;15.21;100.32
34145;HTU21D;69555;53.014;8.886;2023-07-31T05:09:10;15.27;100.33
34145;HTU21D;69555;53.014;8.886;2023-07-31T05:11:37;15.24;100.47
34145;HTU21D;69555;53.014;8.886;2023-07-31T05:14:04;15.28;100.37
34145;HTU21D;69555;53.014;8.886;2023-07-31T05:16:31;15.37;100.08
34145;HTU21D;69555;53.014;8.886;2023-07-31T05:18:57;15.33;100.18
34145;HTU21D;69555;53.014;8.886;2023-07-31T05:21:24;15.21;100.32
34145;HTU21D;69555;53.014;8.886;2023-07-31T05:23:50;15.29;100.55
34145;HTU21D;69555;53.014;8.886;2023-07-31T05:26:17;15.39;100.29
34145;HTU21D;69555;53.014;8.886;2023-07-31T05:28:44;15.21;100.78
34145;HTU21D;69555;53.014;8.886;2023-07-31T05:31:11;15.30;101.11
34145;HTU21D;69555;53.014;8.886;2023-07-31T05:33:37;15.27;101.18
34145;HTU21D;69555;53.014;8.886;2023-07-31T05:36:04;15.30;100.38
34145;HTU21D;69555;53.014;8.886;2023-07-31T05:38:31;15.41;100.53
34145;HTU21D;69555;53.014;8.886;2023-07-31T05:40:57;15.41;100.70
34145;HTU21D;69555;53.014;8.886;2023-07-31T05:43:24;15.46;99.95
34145;HTU21D;69555;53.014;8.886;2023-07-31T05:45:51;15.73;99.46
34145;HTU21D;69555;53.014;8.886;2023-07-31T05:48:17;15.90;98.67
34145;HTU21D;69555;53.014;8.886;2023-07-31T05:50:44;15.76;98.86
34145;HTU21D;69555;53.014;8.886;2023-07-31T05:53:11;15.72;99.24
34145;HTU21D;69555;53.014;8.886;2023-07-31T05:55:38;15.67;99.46
34145;HTU21D;69555;53.014;8.886;2023-07-31T05:58:04;15.86;98.55
34145;HTU21D;69555;53.014;8.886;2023-07-31T06:00:31;15.83;98.41
34145;HTU21D;69555;53.014;8.886;2023-07-31T06:02:58;15.71;98.81
34145;HTU21D;69555;53.014;8.886;2023-07-31T06:05:25;15.66;99.69
34145;HTU21D;69555;53.014;8.886;2023-07-31T06:07:52;15.62;99.86
34145;HTU21D;69555;53.014;8.886;2023-07-31T06:10:19;15.61;99.87
34145;HTU21D;69555;53.014;8.886;2023-07-31T06:12:44;15.59;100.02
34145;HTU21D;69555;53.014;8.886;2023-07-31T06:15:11;15.61;100.12
34145;HTU21D;69555;53.014;8.886;2023-07-31T06:17:38;15.59;100.61
34145;HTU21D;69555;53.014;8.886;2023-07-31T06:20:06;15.70;100.64
34145;HTU21D;69555;53.014;8.886;2023-07-31T06:22:33;15.63;100.92
34145;HTU21D;69555;53.014;8.886;2023-07-31T06:24:59;15.74;100.61
34145;HTU21D;69555;53.014;8.886;2023-07-31T06:27:26;15.61;101.25
34145;HTU21D;69555;53.014;8.886;2023-07-31T06:29:53;15.78;100.96
34145;HTU21D;69555;53.014;8.886;2023-07-31T06:32:18;15.70;101.15
34145;HTU21D;69555;53.014;8.886;2023-07-31T06:34:45;15.75;101.09
34145;HTU21D;69555;53.014;8.886;2023-07-31T06:37:11;15.83;101.28
34145;HTU21D;69555;53.014;8.886;2023-07-31T06:39:38;15.97;100.67
34145;HTU21D;69555;53.014;8.886;2023-07-31T06:42:05;15.93;100.58
34145;HTU21D;69555;53.014;8.886;2023-07-31T06:44:30;16.11;100.54
34145;HTU21D;69555;53.014;8.886;2023-07-31T06:46:55;16.17;100.10
34145;HTU21D;69555;53.014;8.886;2023-07-31T06:49:21;16.08;100.32
34145;HTU21D;69555;53.014;8.886;2023-07-31T06:51:46;16.12;100.04
34145;HTU21D;69555;53.014;8.886;2023-07-31T06:54:13;16.20;100.30
34145;HTU21D;69555;53.014;8.886;2023-07-31T06:56:38;16.20;99.85
34145;HTU21D;69555;53.014;8.886;2023-07-31T06:59:04;16.18;100.27
34145;HTU21D;69555;53.014;8.886;2023-07-31T07:01:30;16.32;99.65
34145;HTU21D;69555;53.014;8.886;2023-07-31T07:03:56;16.12;100.39
34145;HTU21D;69555;53.014;8.886;2023-07-31T07:06:22;16.20;100.20
34145;HTU21D;69555;53.014;8.886;2023-07-31T07:08:49;16.30;99.67
34145;HTU21D;69555;53.014;8.886;2023-07-31T07:11:16;16.20;100.35
34145;HTU21D;69555;53.014;8.886;2023-07-31T07:13:43;16.22;99.72
34145;HTU21D;69555;53.014;8.886;2023-07-31T07:16:08;16.31;100.06
34145;HTU21D;69555;53.014;8.886;2023-07-31T07:18:35;16.30;99.82
34145;HTU21D;69555;53.014;8.886;2023-07-31T07:21:01;16.20;100.31
34145;HTU21D;69555;53.014;8.886;2023-07-31T07:23:27;16.22;100.32
34145;HTU21D;69555;53.014;8.886;2023-07-31T07:25:53;16.24;100.28
34145;HTU21D;69555;53.014;8.886;2023-07-31T07:28:18;16.29;100.58
34145;HTU21D;69555;53.014;8.886;2023-07-31T07:30:43;16.25;100.40
34145;HTU21D;69555;53.014;8.886;2023-07-31T07:33:09;16.26;100.58
34145;HTU21D;69555;53.014;8.886;2023-07-31T07:35:35;16.47;100.32
34145;HTU21D;69555;53.014;8.886;2023-07-31T07:38:02;16.62;99.28
34145;HTU21D;69555;53.014;8.886;2023-07-31T07:40:27;16.65;99.55
34145;HTU21D;69555;53.014;8.886;2023-07-31T07:42:53;16.71;99.29
34145;HTU21D;69555;53.014;8.886;2023-07-31T07:45:18;16.67;99.10
34145;HTU21D;69555;53.014;8.886;2023-07-31T07:47:44;16.75;99.00
34145;HTU21D;69555;53.014;8.886;2023-07-31T07:50:09;16.69;99.45
34145;HTU21D;69555;53.014;8.886;2023-07-31T07:52:35;16.71;98.55
34145;HTU21D;69555;53.014;8.886;2023-07-31T07:55:00;16.77;98.58
34145;HTU21D;69555;53.014;8.886;2023-07-31T07:57:26;16.60;98.32
34145;HTU21D;69555;53.014;8.886;2023-07-31T07:59:52;16.63;99.08
34145;HTU21D;69555;53.014;8.886;2023-07-31T08:02:17;16.73;98.77
34145;HTU21D;69555;53.014;8.886;2023-07-31T08:04:43;16.80;98.52
34145;HTU21D;69555;53.014;8.886;2023-07-31T08:07:10;16.77;98.68
34145;HTU21D;69555;53.014;8.886;2023-07-31T08:09:36;16.78;98.09
34145;HTU21D;69555;53.014;8.886;2023-07-31T08:12:01;16.79;97.61
34145;HTU21D;69555;53.014;8.886;2023-07-31T08:14:28;16.80;97.63
34145;HTU21D;69555;53.014;8.886;2023-07-31T08:16:54;16.78;97.98
34145;HTU21D;69555;53.014;8.886;2023-07-31T08:19:20;16.82;97.39
34145;HTU21D;69555;53.014;8.886;2023-07-31T08:21:46;16.81;96.49
34145;HTU21D;69555;53.014;8.886;2023-07-31T08:24:13;16.82;97.01
34145;HTU21D;69555;53.014;8.886;2023-07-31T08:26:39;17.01;97.14
34145;HTU21D;69555;53.014;8.886;2023-07-31T08:29:06;17.10;96.80
34145;HTU21D;69555;53.014;8.886;2023-07-31T08:31:33;17.20;95.96
34145;HTU21D;69555;53.014;8.886;2023-07-31T08:34:00;17.19;96.01
34145;HTU21D;69555;53.014;8.886;2023-07-31T08:36:27;17.11;95.44
34145;HTU21D;69555;53.014;8.886;2023-07-31T08:38:52;17.08;95.75
34145;HTU21D;69555;53.014;8.886;2023-07-31T08:41:20;17.11;96.09
34145;HTU21D;69555;53.014;8.886;2023-07-31T08:43:48;17.32;95.01
34145;HTU21D;69555;53.014;8.886;2023-07-31T08:46:16;17.47;95.26
34145;HTU21D;69555;53.014;8.886;2023-07-31T08:48:42;17.51;93.24
34145;HTU21D;69555;53.014;8.886;2023-07-31T08:51:08;17.47;93.46
34145;HTU21D;69555;53.014;8.886;2023-07-31T08:53:35;17.66;93.52
34145;HTU21D;69555;53.014;8.886;2023-07-31T08:56:02;17.74;93.55
34145;HTU21D;69555;53.014;8.886;2023-07-31T08:58:31;17.74;93.82
34145;HTU21D;69555;53.014;8.886;2023-07-31T09:01:03;17.48;93.42
34145;HTU21D;69555;53.014;8.886;2023-07-31T09:03:33;17.49;93.69
34145;HTU21D;69555;53.014;8.886;2023-07-31T09:06:00;17.64;93.82
34145;HTU21D;69555;53.014;8.886;2023-07-31T09:08:26;17.56;93.70
34145;HTU21D;69555;53.014;8.886;2023-07-31T09:10:59;17.62;93.19
34145;HTU21D;69555;53.014;8.886;2023-07-31T09:13:25;17.76;93.01
34145;HTU21D;69555;53.014;8.886;2023-07-31T09:15:50;17.94;91.32
34145;HTU21D;69555;53.014;8.886;2023-07-31T09:18:15;17.83;92.64
34145;HTU21D;69555;53.014;8.886;2023-07-31T09:20:44;17.85;92.05
34145;HTU21D;69555;53.014;8.886;2023-07-31T09:23:11;17.74;92.21
34145;HTU21D;69555;53.014;8.886;2023-07-31T09:25:38;17.68;92.18
34145;HTU21D;69555;53.014;8.886;2023-07-31T09:28:06;17.49;92.69
34145;HTU21D;69555;53.014;8.886;2023-07-31T09:30:53;17.46;92.52
34145;HTU21D;69555;53.014;8.886;2023-07-31T09:33:19;17.48;93.54
34145;HTU21D;69555;53.014;8.886;2023-07-31T09:35:47;17.38;93.88
34145;HTU21D;69555;53.014;8.886;2023-07-31T09:38:15;17.46;94.02
34145;HTU21D;69555;53.014;8.886;2023-07-31T09:40:46;17.35;93.72
34145;HTU21D;69555;53.014;8.886;2023-07-31T09:43:18;17.34;94.16
34145;HTU21D;69555;53.014;8.886;2023-07-31T09:45:44;17.47;94.23
34145;HTU21D;69555;53.014;8.886;2023-07-31T09:48:18;17.53;94.08
34145;HTU21D;69555;53.014;8.886;2023-07-31T09:50:46;17.64;95.81
34145;HTU21D;69555;53.014;8.886;2023-07-31T09:53:15;17.70;94.72
34145;HTU21D;69555;53.014;8.886;2023-07-31T09:55:42;17.80;94.56
34145;HTU21D;69555;53.014;8.886;2023-07-31T09:58:10;17.82;95.50
34145;HTU21D;69555;53.014;8.886;2023-07-31T10:00:38;18.18;93.55
34145;HTU21D;69555;53.014;8.886;2023-07-31T10:03:07;17.97;94.26
34145;HTU21D;69555;53.014;8.886;2023-07-31T10:05:42;17.93;94.71
34145;HTU21D;69555;53.014;8.886;2023-07-31T10:08:13;17.87;94.14
34145;HTU21D;69555;53.014;8.886;2023-07-31T10:10:42;17.87;94.05
34145;HTU21D;69555;53.014;8.886;2023-07-31T10:13:09;17.93;94.97
34145;HTU21D;69555;53.014;8.886;2023-07-31T10:15:36;18.23;94.00
34145;HTU21D;69555;53.014;8.886;2023-07-31T10:18:05;18.05;94.22
34145;HTU21D;69555;53.014;8.886;2023-07-31T10:20:32;18.24;94.59
34145;HTU21D;69555;53.014;8.886;2023-07-31T10:23:00;18.33;92.85
34145;HTU21D;69555;53.014;8.886;2023-07-31T10:25:27;18.59;93.73
34145;HTU21D;69555;53.014;8.886;2023-07-31T10:27:54;18.57;92.74
34145;HTU21D;69555;53.014;8.886;2023-07-31T10:30:23;18.28;93.62
34145;HTU21D;69555;53.014;8.886;2023-07-31T10:32:51;18.37;94.35
34145;HTU21D;69555;53.014;8.886;2023-07-31T10:35:18;18.36;94.44
34145;HTU21D;69555;53.014;8.886;2023-07-31T10:37:44;18.44;93.40
34145;HTU21D;69555;53.014;8.886;2023-07-31T10:40:16;18.59;94.23
34145;HTU21D;69555;53.014;8.886;2023-07-31T10:42:50;18.62;93.88
34145;HTU21D;69555;53.014;8.886;2023-07-31T10:47:58;18.44;94.60
34145;HTU21D;69555;53.014;8.886;2023-07-31T10:50:24;18.63;94.55
34145;HTU21D;69555;53.014;8.886;2023-07-31T10:52:51;18.61;95.38
34145;HTU21D;69555;53.014;8.886;2023-07-31T10:55:42;18.50;94.88
34145;HTU21D;69555;53.014;8.886;2023-07-31T10:58:10;18.28;94.51
34145;HTU21D;69555;53.014;8.886;2023-07-31T11:00:38;18.26;95.54
34145;HTU21D;69555;53.014;8.886;2023-07-31T11:03:14;18.61;94.94
34145;HTU21D;69555;53.014;8.886;2023-07-31T11:08:13;18.88;94.06
34145;HTU21D;69555;53.014;8.886;2023-07-31T11:10:39;19.06;91.80
34145;HTU21D;69555;53.014;8.886;2023-07-31T11:13:06;19.27;92.05
34145;HTU21D;69555;53.014;8.886;2023-07-31T11:15:32;19.25;91.08
34145;HTU21D;69555;53.014;8.886;2023-07-31T11:18:00;19.38;91.11
34145;HTU21D;69555;53.014;8.886;2023-07-31T11:20:29;19.35;89.83
34145;HTU21D;69555;53.014;8.886;2023-07-31T11:23:01;19.33;90.66
34145;HTU21D;69555;53.014;8.886;2023-07-31T11:25:30;19.02;91.19
34145;HTU21D;69555;53.014;8.886;2023-07-31T11:28:05;18.92;92.07
34145;HTU21D;69555;53.014;8.886;2023-07-31T11:30:31;19.11;92.27
34145;HTU21D;69555;53.014;8.886;2023-07-31T11:32:58;18.86;92.69
34145;HTU21D;69555;53.014;8.886;2023-07-31T11:35:24;18.97;93.08
34145;HTU21D;69555;53.014;8.886;2023-07-31T11:37:51;18.78;93.39
34145;HTU21D;69555;53.014;8.886;2023-07-31T11:40:18;18.98;93.12
34145;HTU21D;69555;53.014;8.886;2023-07-31T11:42:47;18.82;93.18
34145;HTU21D;69555;53.014;8.886;2023-07-31T11:45:13;18.80;94.11
34145;HTU21D;69555;53.014;8.886;2023-07-31T11:47:40;18.83;93.85
34145;HTU21D;69555;53.014;8.886;2023-07-31T11:50:10;19.00;94.40
34145;HTU21D;69555;53.014;8.886;2023-07-31T11:52:45;18.88;94.67
34145;HTU21D;69555;53.014;8.886;2023-07-31T11:55:12;18.93;95.49
34145;HTU21D;69555;53.014;8.886;2023-07-31T11:57:39;19.07;93.83
34145;HTU21D;69555;53.014;8.886;2023-07-31T12:00:08;19.33;93.29
34145;HTU21D;69555;53.014;8.886;2023-07-31T12:02:37;19.31;93.04
34145;HTU21D;69555;53.014;8.886;2023-07-31T12:05:10;19.21;92.83
34145;HTU21D;69555;53.014;8.886;2023-07-31T12:08:03;19.25;93.49
34145;HTU21D;69555;53.014;8.886;2023-07-31T12:10:33;19.27;93.17
34145;HTU21D;69555;53.014;8.886;2023-07-31T12:13:04;19.09;93.19
34145;HTU21D;69555;53.014;8.886;2023-07-31T12:15:37;19.09;94.67
34145;HTU21D;69555;53.014;8.886;2023-07-31T12:18:19;18.98;93.78
34145;HTU21D;69555;53.014;8.886;2023-07-31T12:20:49;18.95;94.12
34145;HTU21D;69555;53.014;8.886;2023-07-31T12:23:21;18.93;93.75
34145;HTU21D;69555;53.014;8.886;2023-07-31T12:26:03;18.84;93.46
34145;HTU21D;69555;53.014;8.886;2023-07-31T12:28:30;18.92;94.01
34145;HTU21D;69555;53.014;8.886;2023-07-31T12:31:00;18.94;93.47
34145;HTU21D;69555;53.014;8.886;2023-07-31T12:33:31;19.09;93.28
34145;HTU21D;69555;53.014;8.886;2023-07-31T12:35:58;18.86;93.73
34145;HTU21D;69555;53.014;8.886;2023-07-31T12:38:23;18.99;93.81
34145;HTU21D;69555;53.014;8.886;2023-07-31T12:40:49;19.07;92.75
34145;HTU21D;69555;53.014;8.886;2023-07-31T12:43:14;19.14;93.01
34145;HTU21D;69555;53.014;8.886;2023-07-31T12:45:39;19.31;91.33
34145;HTU21D;69555;53.014;8.886;2023-07-31T12:48:05;19.47;91.46
34145;HTU21D;69555;53.014;8.886;2023-07-31T12:50:30;19.69;91.23
34145;HTU21D;69555;53.014;8.886;2023-07-31T12:52:57;19.83;89.88
34145;HTU21D;69555;53.014;8.886;2023-07-31T12:55:22;19.84;90.00
34145;HTU21D;69555;53.014;8.886;2023-07-31T12:57:49;19.45;90.02
34145;HTU21D;69555;53.014;8.886;2023-07-31T13:00:14;19.26;91.43
34145;HTU21D;69555;53.014;8.886;2023-07-31T13:02:40;19.42;91.52
34145;HTU21D;69555;53.014;8.886;2023-07-31T13:05:06;19.20;91.68
34145;HTU21D;69555;53.014;8.886;2023-07-31T13:07:31;19.39;91.27
34145;HTU21D;69555;53.014;8.886;2023-07-31T13:09:57;19.55;90.76
34145;HTU21D;69555;53.014;8.886;2023-07-31T13:12:22;19.35;91.68
34145;HTU21D;69555;53.014;8.886;2023-07-31T13:14:47;19.16;91.63
34145;HTU21D;69555;53.014;8.886;2023-07-31T13:17:13;19.09;92.27
34145;HTU21D;69555;53.014;8.886;2023-07-31T13:19:38;19.25;91.29
34145;HTU21D;69555;53.014;8.886;2023-07-31T13:22:03;19.33;91.85
34145;HTU21D;69555;53.014;8.886;2023-07-31T13:24:29;19.35;90.84
34145;HTU21D;69555;53.014;8.886;2023-07-31T13:26:56;19.28;91.18
34145;HTU21D;69555;53.014;8.886;2023-07-31T13:29:22;19.18;92.53
34145;HTU21D;69555;53.014;8.886;2023-07-31T13:31:47;19.26;92.06
34145;HTU21D;69555;53.014;8.886;2023-07-31T13:34:13;19.32;92.39
34145;HTU21D;69555;53.014;8.886;2023-07-31T13:36:38;19.27;92.73
34145;HTU21D;69555;53.014;8.886;2023-07-31T13:39:04;19.13;92.28
34145;HTU21D;69555;53.014;8.886;2023-07-31T13:41:29;19.10;92.37
34145;HTU21D;69555;53.014;8.886;2023-07-31T13:43:54;19.18;91.96
34145;HTU21D;69555;53.014;8.886;2023-07-31T13:46:20;19.08;91.69
34145;HTU21D;69555;53.014;8.886;2023-07-31T13:48:45;19.15;92.13
34145;HTU21D;69555;53.014;8.886;2023-07-31T13:51:11;19.15;91.98
34145;HTU21D;69555;53.014;8.886;2023-07-31T13:53:36;19.20;91.92
34145;HTU21D;69555;53.014;8.886;2023-07-31T13:56:01;19.20;91.69
34145;HTU21D;69555;53.014;8.886;2023-07-31T13:58:27;19.20;91.40
34145;HTU21D;69555;53.014;8.886;2023-07-31T14:00:52;19.16;91.86
34145;HTU21D;69555;53.014;8.886;2023-07-31T14:03:17;19.18;91.66
34145;HTU21D;69555;53.014;8.886;2023-07-31T14:05:43;19.28;91.85
34145;HTU21D;69555;53.014;8.886;2023-07-31T14:08:08;19.41;90.92
34145;HTU21D;69555;53.014;8.886;2023-07-31T14:10:34;19.28;90.48
34145;HTU21D;69555;53.014;8.886;2023-07-31T14:12:59;19.40;89.95
34145;HTU21D;69555;53.014;8.886;2023-07-31T14:15:24;19.17;90.60
34145;HTU21D;69555;53.014;8.886;2023-07-31T14:17:50;19.32;89.81
34145;HTU21D;69555;53.014;8.886;2023-07-31T14:20:15;19.31;89.66
34145;HTU21D;69555;53.014;8.886;2023-07-31T14:22:40;19.31;89.91
34145;HTU21D;69555;53.014;8.886;2023-07-31T14:25:06;19.29;90.19
34145;HTU21D;69555;53.014;8.886;2023-07-31T14:27:32;19.24;89.83
34145;HTU21D;69555;53.014;8.886;2023-07-31T14:29:58;19.41;88.86
34145;HTU21D;69555;53.014;8.886;2023-07-31T14:32:23;19.72;89.22
34145;HTU21D;69555;53.014;8.886;2023-07-31T14:34:50;19.83;87.65
34145;HTU21D;69555;53.014;8.886;2023-07-31T14:37:16;19.94;86.86
34145;HTU21D;69555;53.014;8.886;2023-07-31T14:39:41;19.90;86.84
34145;HTU21D;69555;53.014;8.886;2023-07-31T14:42:06;20.02;86.96
34145;HTU21D;69555;53.014;8.886;2023-07-31T14:44:32;20.07;86.64
34145;HTU21D;69555;53.014;8.886;2023-07-31T14:46:57;19.94;87.35
34145;HTU21D;69555;53.014;8.886;2023-07-31T14:49:23;19.88;87.27
34145;HTU21D;69555;53.014;8.886;2023-07-31T14:51:48;19.68;87.05
34145;HTU21D;69555;53.014;8.886;2023-07-31T14:54:14;19.53;87.83
34145;HTU21D;69555;53.014;8.886;2023-07-31T14:56:39;19.59;88.40
34145;HTU21D;69555;53.014;8.886;2023-07-31T14:59:05;19.69;87.77
34145;HTU21D;69555;53.014;8.886;2023-07-31T15:01:30;19.82;88.15
34145;HTU21D;69555;53.014;8.886;2023-07-31T15:03:55;19.62;90.15
34145;HTU21D;69555;53.014;8.886;2023-07-31T15:06:21;19.47;91.34
34145;HTU21D;69555;53.014;8.886;2023-07-31T15:08:46;19.32;92.18
34145;HTU21D;69555;53.014;8.886;2023-07-31T15:11:12;19.35;92.52
34145;HTU21D;69555;53.014;8.886;2023-07-31T15:13:37;19.27;92.68
34145;HTU21D;69555;53.014;8.886;2023-07-31T15:16:03;19.28;93.18
34145;HTU21D;69555;53.014;8.886;2023-07-31T15:18:28;19.25;93.19
34145;HTU21D;69555;53.014;8.886;2023-07-31T15:20:53;19.27;92.72